sensor_id;sensor_type;location;lat;lon;timestamp;P1;durP1;ratioP1;P2;durP2;ratioP2
9960;SDS011;5021;51.506;11.320;2023-12-22T00:01:13;24.77;;;6.33;;
9960;SDS011;5021;51.506;11.320;2023-12-22T00:03:42;21.10;;;5.63;;
9960;SDS011;5021;51.506;11.320;2023-12-22T00:06:10;22.50;;;6.23;;
9960;SDS011;5021;51.506;11.320;2023-12-22T00:08:36;19.77;;;5.77;;
9960;SDS011;5021;51.506;11.320;2023-12-22T00:11:02;15.63;;;5.00;;
9960;SDS011;5021;51.506;11.320;2023-12-22T00:13:28;27.13;;;5.73;;
9960;SDS011;5021;51.506;11.320;2023-12-22T00:15:54;27.17;;;6.03;;
9960;SDS011;5021;51.506;11.320;2023-12-22T00:18:20;25.97;;;6.27;;
9960;SDS011;5021;51.506;11.320;2023-12-22T00:20:46;18.57;;;5.07;;
9960;SDS011;5021;51.506;11.320;2023-12-22T00:23:12;22.00;;;5.30;;
9960;SDS011;5021;51.506;11.320;2023-12-22T00:25:38;18.33;;;5.00;;
9960;SDS011;5021;51.506;11.320;2023-12-22T00:28:04;23.60;;;6.03;;
9960;SDS011;5021;51.506;11.320;2023-12-22T00:30:30;22.87;;;5.47;;
9960;SDS011;5021;51.506;11.320;2023-12-22T00:32:56;23.33;;;5.87;;
9960;SDS011;5021;51.506;11.320;2023-12-22T00:35:22;21.83;;;6.47;;
9960;SDS011;5021;51.506;11.320;2023-12-22T00:37:47;24.13;;;6.07;;
9960;SDS011;5021;51.506;11.320;2023-12-22T00:40:13;21.57;;;6.53;;
9960;SDS011;5021;51.506;11.320;2023-12-22T00:42:39;24.43;;;5.83;;
9960;SDS011;5021;51.506;11.320;2023-12-22T00:45:05;20.33;;;5.03;;
9960;SDS011;5021;51.506;11.320;2023-12-22T00:47:31;21.60;;;5.30;;
9960;SDS011;5021;51.506;11.320;2023-12-22T00:50:00;22.07;;;5.63;;
9960;SDS011;5021;51.506;11.320;2023-12-22T00:52:26;25.90;;;5.63;;
9960;SDS011;5021;51.506;11.320;2023-12-22T00:54:52;21.03;;;5.83;;
9960;SDS011;5021;51.506;11.320;2023-12-22T00:57:18;16.83;;;5.80;;
9960;SDS011;5021;51.506;11.320;2023-12-22T00:59:44;20.37;;;5.77;;
9960;SDS011;5021;51.506;11.320;2023-12-22T01:02:15;24.63;;;6.27;;
9960;SDS011;5021;51.506;11.320;2023-12-22T01:04:41;18.80;;;5.43;;
9960;SDS011;5021;51.506;11.320;2023-12-22T01:07:08;23.80;;;5.83;;
9960;SDS011;5021;51.506;11.320;2023-12-22T01:09:34;22.43;;;5.63;;
9960;SDS011;5021;51.506;11.320;2023-12-22T01:12:01;23.30;;;6.30;;
9960;SDS011;5021;51.506;11.320;2023-12-22T01:14:28;18.27;;;5.13;;
9960;SDS011;5021;51.506;11.320;2023-12-22T01:16:54;19.70;;;5.33;;
9960;SDS011;5021;51.506;11.320;2023-12-22T01:19:20;26.50;;;5.67;;
9960;SDS011;5021;51.506;11.320;2023-12-22T01:21:46;17.80;;;5.17;;
9960;SDS011;5021;51.506;11.320;2023-12-22T01:24:12;17.47;;;5.23;;
9960;SDS011;5021;51.506;11.320;2023-12-22T01:26:38;24.47;;;5.30;;
9960;SDS011;5021;51.506;11.320;2023-12-22T01:29:04;21.77;;;5.80;;
9960;SDS011;5021;51.506;11.320;2023-12-22T01:31:30;23.27;;;5.37;;
9960;SDS011;5021;51.506;11.320;2023-12-22T01:33:56;20.50;;;5.70;;
9960;SDS011;5021;51.506;11.320;2023-12-22T01:36:22;18.20;;;5.23;;
9960;SDS011;5021;51.506;11.320;2023-12-22T01:38:48;23.30;;;5.83;;
9960;SDS011;5021;51.506;11.320;2023-12-22T01:41:13;25.70;;;5.27;;
9960;SDS011;5021;51.506;11.320;2023-12-22T01:43:40;15.57;;;4.93;;
9960;SDS011;5021;51.506;11.320;2023-12-22T01:46:06;24.67;;;6.67;;
9960;SDS011;5021;51.506;11.320;2023-12-22T01:48:33;23.10;;;5.33;;
9960;SDS011;5021;51.506;11.320;2023-12-22T01:50:59;23.90;;;5.17;;
9960;SDS011;5021;51.506;11.320;2023-12-22T01:53:26;29.57;;;5.37;;
9960;SDS011;5021;51.506;11.320;2023-12-22T01:55:54;22.80;;;6.33;;
9960;SDS011;5021;51.506;11.320;2023-12-22T01:58:22;19.23;;;5.10;;
9960;SDS011;5021;51.506;11.320;2023-12-22T02:00:48;19.43;;;5.33;;
9960;SDS011;5021;51.506;11.320;2023-12-22T02:03:14;17.73;;;5.00;;
9960;SDS011;5021;51.506;11.320;2023-12-22T02:05:42;13.57;;;4.33;;
9960;SDS011;5021;51.506;11.320;2023-12-22T02:08:08;17.93;;;4.20;;
9960;SDS011;5021;51.506;11.320;2023-12-22T02:10:34;20.30;;;3.77;;
9960;SDS011;5021;51.506;11.320;2023-12-22T02:13:00;12.80;;;3.63;;
9960;SDS011;5021;51.506;11.320;2023-12-22T02:15:26;11.50;;;3.70;;
9960;SDS011;5021;51.506;11.320;2023-12-22T02:17:55;12.00;;;3.53;;
9960;SDS011;5021;51.506;11.320;2023-12-22T02:20:24;17.07;;;4.43;;
9960;SDS011;5021;51.506;11.320;2023-12-22T02:22:51;15.40;;;4.30;;
9960;SDS011;5021;51.506;11.320;2023-12-22T02:25:17;13.70;;;4.07;;
9960;SDS011;5021;51.506;11.320;2023-12-22T02:27:53;18.80;;;4.53;;
9960;SDS011;5021;51.506;11.320;2023-12-22T02:32:59;19.90;;;4.00;;
9960;SDS011;5021;51.506;11.320;2023-12-22T02:35:26;20.57;;;4.23;;
9960;SDS011;5021;51.506;11.320;2023-12-22T02:37:54;16.87;;;4.50;;
9960;SDS011;5021;51.506;11.320;2023-12-22T02:40:22;14.70;;;4.20;;
9960;SDS011;5021;51.506;11.320;2023-12-22T02:42:48;14.57;;;3.83;;
9960;SDS011;5021;51.506;11.320;2023-12-22T02:45:14;10.27;;;3.70;;
9960;SDS011;5021;51.506;11.320;2023-12-22T02:47:40;14.80;;;3.40;;
9960;SDS011;5021;51.506;11.320;2023-12-22T02:50:07;10.87;;;3.80;;
9960;SDS011;5021;51.506;11.320;2023-12-22T02:52:33;12.67;;;3.63;;
9960;SDS011;5021;51.506;11.320;2023-12-22T02:55:00;10.73;;;3.30;;
9960;SDS011;5021;51.506;11.320;2023-12-22T02:57:26;15.03;;;3.30;;
9960;SDS011;5021;51.506;11.320;2023-12-22T02:59:52;8.67;;;2.70;;
9960;SDS011;5021;51.506;11.320;2023-12-22T03:02:18;9.27;;;3.10;;
9960;SDS011;5021;51.506;11.320;2023-12-22T03:04:43;7.33;;;2.60;;
9960;SDS011;5021;51.506;11.320;2023-12-22T03:07:11;9.63;;;2.70;;
9960;SDS011;5021;51.506;11.320;2023-12-22T03:09:37;14.63;;;3.63;;
9960;SDS011;5021;51.506;11.320;2023-12-22T03:12:03;9.47;;;3.10;;
9960;SDS011;5021;51.506;11.320;2023-12-22T03:14:32;9.47;;;3.10;;
9960;SDS011;5021;51.506;11.320;2023-12-22T03:17:05;9.03;;;3.30;;
9960;SDS011;5021;51.506;11.320;2023-12-22T03:19:31;13.20;;;3.07;;
9960;SDS011;5021;51.506;11.320;2023-12-22T03:21:57;8.73;;;3.23;;
9960;SDS011;5021;51.506;11.320;2023-12-22T03:24:23;11.33;;;2.67;;
9960;SDS011;5021;51.506;11.320;2023-12-22T03:26:49;8.77;;;2.80;;
9960;SDS011;5021;51.506;11.320;2023-12-22T03:29:16;7.40;;;2.63;;
9960;SDS011;5021;51.506;11.320;2023-12-22T03:31:42;7.33;;;2.10;;
9960;SDS011;5021;51.506;11.320;2023-12-22T03:34:08;5.87;;;2.17;;
9960;SDS011;5021;51.506;11.320;2023-12-22T03:36:34;10.30;;;2.33;;
9960;SDS011;5021;51.506;11.320;2023-12-22T03:39:00;6.27;;;2.43;;
9960;SDS011;5021;51.506;11.320;2023-12-22T03:41:26;4.33;;;2.00;;
9960;SDS011;5021;51.506;11.320;2023-12-22T03:43:52;4.73;;;2.10;;
9960;SDS011;5021;51.506;11.320;2023-12-22T03:46:18;8.13;;;2.33;;
9960;SDS011;5021;51.506;11.320;2023-12-22T03:48:44;6.23;;;1.80;;
9960;SDS011;5021;51.506;11.320;2023-12-22T03:51:10;6.40;;;2.70;;
9960;SDS011;5021;51.506;11.320;2023-12-22T03:53:38;3.43;;;2.00;;
9960;SDS011;5021;51.506;11.320;2023-12-22T03:56:04;3.90;;;1.90;;
9960;SDS011;5021;51.506;11.320;2023-12-22T03:58:30;7.23;;;2.10;;
9960;SDS011;5021;51.506;11.320;2023-12-22T04:00:56;5.20;;;2.63;;
9960;SDS011;5021;51.506;11.320;2023-12-22T04:03:22;9.20;;;2.53;;
9960;SDS011;5021;51.506;11.320;2023-12-22T04:05:48;6.17;;;2.47;;
9960;SDS011;5021;51.506;11.320;2023-12-22T04:08:13;6.97;;;2.37;;
9960;SDS011;5021;51.506;11.320;2023-12-22T04:10:39;9.90;;;3.07;;
9960;SDS011;5021;51.506;11.320;2023-12-22T04:13:05;7.83;;;2.50;;
9960;SDS011;5021;51.506;11.320;2023-12-22T04:15:31;12.23;;;3.00;;
9960;SDS011;5021;51.506;11.320;2023-12-22T04:17:57;9.33;;;2.93;;
9960;SDS011;5021;51.506;11.320;2023-12-22T04:20:23;8.23;;;3.10;;
9960;SDS011;5021;51.506;11.320;2023-12-22T04:22:49;10.80;;;2.80;;
9960;SDS011;5021;51.506;11.320;2023-12-22T04:25:15;7.60;;;2.77;;
9960;SDS011;5021;51.506;11.320;2023-12-22T04:27:41;10.10;;;3.03;;
9960;SDS011;5021;51.506;11.320;2023-12-22T04:30:07;7.27;;;2.50;;
9960;SDS011;5021;51.506;11.320;2023-12-22T04:32:33;10.33;;;3.30;;
9960;SDS011;5021;51.506;11.320;2023-12-22T04:34:59;11.43;;;2.87;;
9960;SDS011;5021;51.506;11.320;2023-12-22T04:37:25;10.87;;;3.00;;
9960;SDS011;5021;51.506;11.320;2023-12-22T04:39:51;7.00;;;2.67;;
9960;SDS011;5021;51.506;11.320;2023-12-22T04:42:17;7.37;;;2.53;;
9960;SDS011;5021;51.506;11.320;2023-12-22T04:44:43;7.53;;;2.10;;
9960;SDS011;5021;51.506;11.320;2023-12-22T04:47:09;9.00;;;3.13;;
9960;SDS011;5021;51.506;11.320;2023-12-22T04:49:35;8.80;;;2.80;;
9960;SDS011;5021;51.506;11.320;2023-12-22T04:52:01;6.37;;;2.73;;
9960;SDS011;5021;51.506;11.320;2023-12-22T04:54:27;10.03;;;3.27;;
9960;SDS011;5021;51.506;11.320;2023-12-22T04:56:53;8.87;;;2.93;;
9960;SDS011;5021;51.506;11.320;2023-12-22T04:59:18;9.00;;;2.63;;
9960;SDS011;5021;51.506;11.320;2023-12-22T05:01:44;9.67;;;2.47;;
9960;SDS011;5021;51.506;11.320;2023-12-22T05:04:11;10.30;;;3.30;;
9960;SDS011;5021;51.506;11.320;2023-12-22T05:06:37;7.07;;;2.63;;
9960;SDS011;5021;51.506;11.320;2023-12-22T05:09:02;11.63;;;3.07;;
9960;SDS011;5021;51.506;11.320;2023-12-22T05:11:28;9.90;;;3.13;;
9960;SDS011;5021;51.506;11.320;2023-12-22T05:13:54;14.90;;;3.77;;
9960;SDS011;5021;51.506;11.320;2023-12-22T05:16:20;14.90;;;3.40;;
9960;SDS011;5021;51.506;11.320;2023-12-22T05:18:46;10.17;;;3.23;;
9960;SDS011;5021;51.506;11.320;2023-12-22T05:21:12;10.80;;;3.00;;
9960;SDS011;5021;51.506;11.320;2023-12-22T05:23:41;12.43;;;3.30;;
9960;SDS011;5021;51.506;11.320;2023-12-22T05:26:07;10.37;;;3.00;;
9960;SDS011;5021;51.506;11.320;2023-12-22T05:28:34;12.23;;;3.27;;
9960;SDS011;5021;51.506;11.320;2023-12-22T05:31:00;12.53;;;3.30;;
9960;SDS011;5021;51.506;11.320;2023-12-22T05:33:25;12.50;;;3.43;;
9960;SDS011;5021;51.506;11.320;2023-12-22T05:35:51;8.27;;;2.83;;
9960;SDS011;5021;51.506;11.320;2023-12-22T05:38:17;9.20;;;2.93;;
9960;SDS011;5021;51.506;11.320;2023-12-22T05:40:44;7.37;;;2.60;;
9960;SDS011;5021;51.506;11.320;2023-12-22T05:43:11;8.10;;;2.67;;
9960;SDS011;5021;51.506;11.320;2023-12-22T05:45:37;7.27;;;2.17;;
9960;SDS011;5021;51.506;11.320;2023-12-22T05:48:03;10.33;;;2.70;;
9960;SDS011;5021;51.506;11.320;2023-12-22T05:50:29;7.33;;;2.73;;
9960;SDS011;5021;51.506;11.320;2023-12-22T05:52:55;10.70;;;2.70;;
9960;SDS011;5021;51.506;11.320;2023-12-22T05:55:21;8.80;;;2.83;;
9960;SDS011;5021;51.506;11.320;2023-12-22T05:57:47;11.73;;;3.10;;
9960;SDS011;5021;51.506;11.320;2023-12-22T06:00:13;10.93;;;3.17;;
9960;SDS011;5021;51.506;11.320;2023-12-22T06:02:40;6.33;;;2.57;;
9960;SDS011;5021;51.506;11.320;2023-12-22T06:05:06;11.50;;;2.73;;
9960;SDS011;5021;51.506;11.320;2023-12-22T06:07:32;10.17;;;2.80;;
9960;SDS011;5021;51.506;11.320;2023-12-22T06:09:58;12.60;;;3.20;;
9960;SDS011;5021;51.506;11.320;2023-12-22T06:12:24;14.03;;;3.43;;
9960;SDS011;5021;51.506;11.320;2023-12-22T06:14:50;9.87;;;3.07;;
9960;SDS011;5021;51.506;11.320;2023-12-22T06:17:16;6.47;;;2.70;;
9960;SDS011;5021;51.506;11.320;2023-12-22T06:19:42;10.23;;;2.93;;
9960;SDS011;5021;51.506;11.320;2023-12-22T06:22:07;11.57;;;4.50;;
9960;SDS011;5021;51.506;11.320;2023-12-22T06:24:36;10.70;;;3.03;;
9960;SDS011;5021;51.506;11.320;2023-12-22T06:27:02;10.97;;;3.20;;
9960;SDS011;5021;51.506;11.320;2023-12-22T06:29:28;9.50;;;3.27;;
9960;SDS011;5021;51.506;11.320;2023-12-22T06:31:55;13.70;;;3.33;;
9960;SDS011;5021;51.506;11.320;2023-12-22T06:34:21;9.57;;;2.90;;
9960;SDS011;5021;51.506;11.320;2023-12-22T06:36:47;11.37;;;3.70;;
9960;SDS011;5021;51.506;11.320;2023-12-22T06:39:14;10.13;;;3.13;;
9960;SDS011;5021;51.506;11.320;2023-12-22T06:41:40;11.50;;;2.97;;
9960;SDS011;5021;51.506;11.320;2023-12-22T06:44:06;9.23;;;3.03;;
9960;SDS011;5021;51.506;11.320;2023-12-22T06:46:32;11.63;;;2.93;;
9960;SDS011;5021;51.506;11.320;2023-12-22T06:48:58;10.67;;;2.77;;
9960;SDS011;5021;51.506;11.320;2023-12-22T06:51:25;8.07;;;2.93;;
9960;SDS011;5021;51.506;11.320;2023-12-22T06:53:52;8.13;;;2.57;;
9960;SDS011;5021;51.506;11.320;2023-12-22T06:56:18;6.27;;;2.67;;
9960;SDS011;5021;51.506;11.320;2023-12-22T06:58:45;8.67;;;2.33;;
9960;SDS011;5021;51.506;11.320;2023-12-22T07:01:12;7.53;;;2.73;;
9960;SDS011;5021;51.506;11.320;2023-12-22T07:03:38;9.07;;;2.90;;
9960;SDS011;5021;51.506;11.320;2023-12-22T07:06:04;10.40;;;3.53;;
9960;SDS011;5021;51.506;11.320;2023-12-22T07:08:30;11.63;;;3.83;;
9960;SDS011;5021;51.506;11.320;2023-12-22T07:10:56;11.73;;;5.43;;
9960;SDS011;5021;51.506;11.320;2023-12-22T07:13:21;9.53;;;3.80;;
9960;SDS011;5021;51.506;11.320;2023-12-22T07:15:47;11.23;;;3.67;;
9960;SDS011;5021;51.506;11.320;2023-12-22T07:18:13;7.57;;;2.57;;
9960;SDS011;5021;51.506;11.320;2023-12-22T07:20:39;9.97;;;3.10;;
9960;SDS011;5021;51.506;11.320;2023-12-22T07:23:05;8.47;;;2.90;;
9960;SDS011;5021;51.506;11.320;2023-12-22T07:25:35;6.67;;;2.63;;
9960;SDS011;5021;51.506;11.320;2023-12-22T07:28:01;5.33;;;2.10;;
9960;SDS011;5021;51.506;11.320;2023-12-22T07:30:26;8.67;;;3.03;;
9960;SDS011;5021;51.506;11.320;2023-12-22T07:32:52;10.43;;;2.80;;
9960;SDS011;5021;51.506;11.320;2023-12-22T07:35:18;4.43;;;2.13;;
9960;SDS011;5021;51.506;11.320;2023-12-22T07:37:44;7.97;;;2.90;;
9960;SDS011;5021;51.506;11.320;2023-12-22T07:40:10;7.97;;;2.60;;
9960;SDS011;5021;51.506;11.320;2023-12-22T07:42:36;7.70;;;2.50;;
9960;SDS011;5021;51.506;11.320;2023-12-22T07:45:03;7.60;;;2.20;;
9960;SDS011;5021;51.506;11.320;2023-12-22T07:47:29;3.17;;;1.63;;
9960;SDS011;5021;51.506;11.320;2023-12-22T07:49:55;1.77;;;1.33;;
9960;SDS011;5021;51.506;11.320;2023-12-22T07:52:21;4.33;;;1.60;;
9960;SDS011;5021;51.506;11.320;2023-12-22T07:54:47;2.13;;;1.10;;
9960;SDS011;5021;51.506;11.320;2023-12-22T07:57:12;1.83;;;1.23;;
9960;SDS011;5021;51.506;11.320;2023-12-22T07:59:38;2.27;;;1.47;;
9960;SDS011;5021;51.506;11.320;2023-12-22T08:02:04;2.63;;;1.27;;
9960;SDS011;5021;51.506;11.320;2023-12-22T08:04:31;1.17;;;1.07;;
9960;SDS011;5021;51.506;11.320;2023-12-22T08:06:57;1.00;;;1.00;;
9960;SDS011;5021;51.506;11.320;2023-12-22T08:09:23;1.87;;;1.10;;
9960;SDS011;5021;51.506;11.320;2023-12-22T08:11:49;1.13;;;1.03;;
9960;SDS011;5021;51.506;11.320;2023-12-22T08:14:17;1.33;;;1.00;;
9960;SDS011;5021;51.506;11.320;2023-12-22T08:16:43;2.07;;;1.50;;
9960;SDS011;5021;51.506;11.320;2023-12-22T08:19:09;0.90;;;0.90;;
9960;SDS011;5021;51.506;11.320;2023-12-22T08:21:35;1.50;;;1.40;;
9960;SDS011;5021;51.506;11.320;2023-12-22T08:24:01;1.50;;;1.40;;
9960;SDS011;5021;51.506;11.320;2023-12-22T08:26:27;1.50;;;1.30;;
9960;SDS011;5021;51.506;11.320;2023-12-22T08:28:53;1.20;;;1.10;;
9960;SDS011;5021;51.506;11.320;2023-12-22T08:31:19;0.67;;;0.67;;
9960;SDS011;5021;51.506;11.320;2023-12-22T08:33:45;0.80;;;0.70;;
9960;SDS011;5021;51.506;11.320;2023-12-22T08:36:11;1.13;;;0.80;;
9960;SDS011;5021;51.506;11.320;2023-12-22T08:38:37;0.60;;;0.60;;
9960;SDS011;5021;51.506;11.320;2023-12-22T08:41:06;1.63;;;1.53;;
9960;SDS011;5021;51.506;11.320;2023-12-22T08:43:32;1.27;;;1.10;;
9960;SDS011;5021;51.506;11.320;2023-12-22T08:45:58;0.87;;;0.87;;
9960;SDS011;5021;51.506;11.320;2023-12-22T08:48:24;0.80;;;0.80;;
9960;SDS011;5021;51.506;11.320;2023-12-22T08:50:50;0.90;;;0.60;;
9960;SDS011;5021;51.506;11.320;2023-12-22T08:53:16;1.40;;;1.30;;
9960;SDS011;5021;51.506;11.320;2023-12-22T08:55:41;2.33;;;2.00;;
9960;SDS011;5021;51.506;11.320;2023-12-22T08:58:07;2.93;;;1.60;;
9960;SDS011;5021;51.506;11.320;2023-12-22T09:00:33;2.13;;;1.30;;
9960;SDS011;5021;51.506;11.320;2023-12-22T09:02:59;3.37;;;2.07;;
9960;SDS011;5021;51.506;11.320;2023-12-22T09:05:25;5.37;;;2.17;;
9960;SDS011;5021;51.506;11.320;2023-12-22T09:07:51;8.20;;;2.60;;
9960;SDS011;5021;51.506;11.320;2023-12-22T09:10:17;8.47;;;2.23;;
9960;SDS011;5021;51.506;11.320;2023-12-22T09:12:44;8.67;;;2.77;;
9960;SDS011;5021;51.506;11.320;2023-12-22T09:15:09;9.30;;;2.83;;
9960;SDS011;5021;51.506;11.320;2023-12-22T09:17:35;8.77;;;2.80;;
9960;SDS011;5021;51.506;11.320;2023-12-22T09:20:02;10.43;;;3.47;;
9960;SDS011;5021;51.506;11.320;2023-12-22T09:22:28;7.80;;;3.00;;
9960;SDS011;5021;51.506;11.320;2023-12-22T09:24:54;7.30;;;2.77;;
9960;SDS011;5021;51.506;11.320;2023-12-22T09:27:20;9.60;;;3.10;;
9960;SDS011;5021;51.506;11.320;2023-12-22T09:29:45;11.33;;;2.97;;
9960;SDS011;5021;51.506;11.320;2023-12-22T09:32:12;11.33;;;3.63;;
9960;SDS011;5021;51.506;11.320;2023-12-22T09:34:38;8.87;;;3.07;;
9960;SDS011;5021;51.506;11.320;2023-12-22T09:37:05;9.83;;;3.30;;
9960;SDS011;5021;51.506;11.320;2023-12-22T09:39:31;13.47;;;3.57;;
9960;SDS011;5021;51.506;11.320;2023-12-22T09:41:57;10.70;;;3.60;;
9960;SDS011;5021;51.506;11.320;2023-12-22T09:44:23;15.80;;;3.37;;
9960;SDS011;5021;51.506;11.320;2023-12-22T09:46:50;9.00;;;3.00;;
9960;SDS011;5021;51.506;11.320;2023-12-22T09:49:17;10.47;;;2.90;;
9960;SDS011;5021;51.506;11.320;2023-12-22T09:51:44;8.87;;;2.70;;
9960;SDS011;5021;51.506;11.320;2023-12-22T09:54:10;16.70;;;4.20;;
9960;SDS011;5021;51.506;11.320;2023-12-22T09:56:37;10.80;;;3.20;;
9960;SDS011;5021;51.506;11.320;2023-12-22T09:59:08;12.47;;;3.30;;
9960;SDS011;5021;51.506;11.320;2023-12-22T10:01:34;9.53;;;2.90;;
9960;SDS011;5021;51.506;11.320;2023-12-22T10:04:01;9.20;;;2.70;;
9960;SDS011;5021;51.506;11.320;2023-12-22T10:06:27;12.83;;;3.43;;
9960;SDS011;5021;51.506;11.320;2023-12-22T10:08:53;9.83;;;3.77;;
9960;SDS011;5021;51.506;11.320;2023-12-22T10:11:19;12.03;;;3.73;;
9960;SDS011;5021;51.506;11.320;2023-12-22T10:13:46;9.23;;;2.70;;
9960;SDS011;5021;51.506;11.320;2023-12-22T10:16:12;19.53;;;4.43;;
9960;SDS011;5021;51.506;11.320;2023-12-22T10:18:38;6.80;;;2.83;;
9960;SDS011;5021;51.506;11.320;2023-12-22T10:21:04;12.00;;;3.47;;
9960;SDS011;5021;51.506;11.320;2023-12-22T10:23:30;9.83;;;2.77;;
9960;SDS011;5021;51.506;11.320;2023-12-22T10:25:57;12.20;;;2.87;;
9960;SDS011;5021;51.506;11.320;2023-12-22T10:28:23;11.43;;;3.20;;
9960;SDS011;5021;51.506;11.320;2023-12-22T10:30:51;10.10;;;3.20;;
9960;SDS011;5021;51.506;11.320;2023-12-22T10:33:18;7.87;;;3.23;;
9960;SDS011;5021;51.506;11.320;2023-12-22T10:35:44;12.93;;;4.00;;
9960;SDS011;5021;51.506;11.320;2023-12-22T10:38:10;10.20;;;2.87;;
9960;SDS011;5021;51.506;11.320;2023-12-22T10:40:36;8.37;;;3.13;;
9960;SDS011;5021;51.506;11.320;2023-12-22T10:43:03;9.17;;;3.30;;
9960;SDS011;5021;51.506;11.320;2023-12-22T10:45:29;14.10;;;4.30;;
9960;SDS011;5021;51.506;11.320;2023-12-22T10:47:57;12.77;;;3.57;;
9960;SDS011;5021;51.506;11.320;2023-12-22T10:50:24;12.93;;;3.67;;
9960;SDS011;5021;51.506;11.320;2023-12-22T10:52:50;11.03;;;3.23;;
9960;SDS011;5021;51.506;11.320;2023-12-22T10:55:16;13.00;;;3.17;;
9960;SDS011;5021;51.506;11.320;2023-12-22T10:57:44;9.20;;;3.00;;
9960;SDS011;5021;51.506;11.320;2023-12-22T11:00:11;10.83;;;3.60;;
9960;SDS011;5021;51.506;11.320;2023-12-22T11:02:37;12.10;;;3.60;;
9960;SDS011;5021;51.506;11.320;2023-12-22T11:05:05;13.47;;;3.07;;
9960;SDS011;5021;51.506;11.320;2023-12-22T11:07:33;10.80;;;3.63;;
9960;SDS011;5021;51.506;11.320;2023-12-22T11:10:03;10.17;;;3.90;;
9960;SDS011;5021;51.506;11.320;2023-12-22T11:12:31;11.77;;;3.57;;
9960;SDS011;5021;51.506;11.320;2023-12-22T11:14:57;12.40;;;3.63;;
9960;SDS011;5021;51.506;11.320;2023-12-22T11:17:23;9.67;;;3.83;;
9960;SDS011;5021;51.506;11.320;2023-12-22T11:19:52;11.17;;;3.43;;
9960;SDS011;5021;51.506;11.320;2023-12-22T11:22:19;8.97;;;3.23;;
9960;SDS011;5021;51.506;11.320;2023-12-22T11:24:46;9.27;;;2.83;;
9960;SDS011;5021;51.506;11.320;2023-12-22T11:27:14;13.60;;;3.27;;
9960;SDS011;5021;51.506;11.320;2023-12-22T11:29:41;8.27;;;3.17;;
9960;SDS011;5021;51.506;11.320;2023-12-22T11:32:07;10.77;;;3.20;;
9960;SDS011;5021;51.506;11.320;2023-12-22T11:34:33;11.87;;;3.23;;
9960;SDS011;5021;51.506;11.320;2023-12-22T11:37:01;12.53;;;3.83;;
9960;SDS011;5021;51.506;11.320;2023-12-22T11:39:29;8.83;;;3.00;;
9960;SDS011;5021;51.506;11.320;2023-12-22T11:41:55;10.03;;;3.63;;
9960;SDS011;5021;51.506;11.320;2023-12-22T11:44:22;9.50;;;2.90;;
9960;SDS011;5021;51.506;11.320;2023-12-22T11:46:48;9.43;;;2.93;;
9960;SDS011;5021;51.506;11.320;2023-12-22T11:49:14;11.20;;;3.40;;
9960;SDS011;5021;51.506;11.320;2023-12-22T11:51:40;8.60;;;3.07;;
9960;SDS011;5021;51.506;11.320;2023-12-22T11:56:50;16.10;;;3.67;;
9960;SDS011;5021;51.506;11.320;2023-12-22T11:59:16;13.10;;;3.27;;
9960;SDS011;5021;51.506;11.320;2023-12-22T12:01:42;9.63;;;3.03;;
9960;SDS011;5021;51.506;11.320;2023-12-22T12:04:08;8.00;;;3.40;;
9960;SDS011;5021;51.506;11.320;2023-12-22T12:06:35;15.27;;;3.47;;
9960;SDS011;5021;51.506;11.320;2023-12-22T12:09:06;12.67;;;3.77;;
9960;SDS011;5021;51.506;11.320;2023-12-22T12:14:32;7.80;;;2.50;;
9960;SDS011;5021;51.506;11.320;2023-12-22T12:17:00;14.47;;;3.33;;
9960;SDS011;5021;51.506;11.320;2023-12-22T12:19:29;11.00;;;3.20;;
9960;SDS011;5021;51.506;11.320;2023-12-22T12:21:55;8.77;;;3.17;;
9960;SDS011;5021;51.506;11.320;2023-12-22T12:24:21;8.27;;;2.93;;
9960;SDS011;5021;51.506;11.320;2023-12-22T12:26:47;8.40;;;2.90;;
9960;SDS011;5021;51.506;11.320;2023-12-22T12:29:13;11.10;;;3.00;;
9960;SDS011;5021;51.506;11.320;2023-12-22T12:31:39;7.50;;;2.80;;
9960;SDS011;5021;51.506;11.320;2023-12-22T12:34:07;6.67;;;2.80;;
9960;SDS011;5021;51.506;11.320;2023-12-22T12:36:36;10.47;;;3.47;;
9960;SDS011;5021;51.506;11.320;2023-12-22T12:39:07;8.97;;;3.20;;
9960;SDS011;5021;51.506;11.320;2023-12-22T12:41:35;10.47;;;3.33;;
9960;SDS011;5021;51.506;11.320;2023-12-22T12:44:03;7.57;;;3.00;;
9960;SDS011;5021;51.506;11.320;2023-12-22T12:46:39;7.10;;;2.87;;
9960;SDS011;5021;51.506;11.320;2023-12-22T12:49:09;7.03;;;2.30;;
9960;SDS011;5021;51.506;11.320;2023-12-22T12:51:43;7.30;;;2.50;;
9960;SDS011;5021;51.506;11.320;2023-12-22T12:54:10;9.70;;;2.83;;
9960;SDS011;5021;51.506;11.320;2023-12-22T12:56:37;10.53;;;3.00;;
9960;SDS011;5021;51.506;11.320;2023-12-22T12:59:11;6.47;;;2.17;;
9960;SDS011;5021;51.506;11.320;2023-12-22T13:04:05;7.63;;;2.53;;
9960;SDS011;5021;51.506;11.320;2023-12-22T13:06:31;4.67;;;2.17;;
9960;SDS011;5021;51.506;11.320;2023-12-22T13:08:58;5.20;;;2.20;;
9960;SDS011;5021;51.506;11.320;2023-12-22T13:11:25;6.30;;;2.40;;
9960;SDS011;5021;51.506;11.320;2023-12-22T13:13:52;5.83;;;2.53;;
9960;SDS011;5021;51.506;11.320;2023-12-22T13:16:21;7.63;;;3.03;;
9960;SDS011;5021;51.506;11.320;2023-12-22T13:18:50;10.87;;;4.97;;
9960;SDS011;5021;51.506;11.320;2023-12-22T13:21:16;4.13;;;2.07;;
9960;SDS011;5021;51.506;11.320;2023-12-22T13:23:42;5.70;;;2.20;;
9960;SDS011;5021;51.506;11.320;2023-12-22T13:26:18;5.17;;;2.17;;
9960;SDS011;5021;51.506;11.320;2023-12-22T13:28:44;3.53;;;2.00;;
9960;SDS011;5021;51.506;11.320;2023-12-22T13:31:10;3.93;;;1.50;;
9960;SDS011;5021;51.506;11.320;2023-12-22T13:33:38;4.30;;;1.80;;
9960;SDS011;5021;51.506;11.320;2023-12-22T13:36:04;6.37;;;1.97;;
9960;SDS011;5021;51.506;11.320;2023-12-22T13:38:30;4.40;;;1.63;;
9960;SDS011;5021;51.506;11.320;2023-12-22T13:40:56;3.00;;;1.63;;
9960;SDS011;5021;51.506;11.320;2023-12-22T13:43:22;5.07;;;2.00;;
9960;SDS011;5021;51.506;11.320;2023-12-22T13:45:53;4.93;;;2.23;;
9960;SDS011;5021;51.506;11.320;2023-12-22T13:48:19;4.33;;;1.80;;
9960;SDS011;5021;51.506;11.320;2023-12-22T13:50:54;5.73;;;2.07;;
9960;SDS011;5021;51.506;11.320;2023-12-22T13:53:20;5.30;;;1.70;;
9960;SDS011;5021;51.506;11.320;2023-12-22T13:55:53;4.50;;;1.80;;
9960;SDS011;5021;51.506;11.320;2023-12-22T13:58:19;4.90;;;2.20;;
9960;SDS011;5021;51.506;11.320;2023-12-22T14:00:45;3.20;;;1.93;;
9960;SDS011;5021;51.506;11.320;2023-12-22T14:03:11;5.13;;;2.10;;
9960;SDS011;5021;51.506;11.320;2023-12-22T14:05:37;4.33;;;1.90;;
9960;SDS011;5021;51.506;11.320;2023-12-22T14:08:03;4.03;;;1.73;;
9960;SDS011;5021;51.506;11.320;2023-12-22T14:10:29;4.13;;;1.90;;
9960;SDS011;5021;51.506;11.320;2023-12-22T14:12:56;4.90;;;1.67;;
9960;SDS011;5021;51.506;11.320;2023-12-22T14:15:22;3.70;;;1.50;;
9960;SDS011;5021;51.506;11.320;2023-12-22T14:17:48;5.70;;;1.73;;
9960;SDS011;5021;51.506;11.320;2023-12-22T14:20:14;6.97;;;1.80;;
9960;SDS011;5021;51.506;11.320;2023-12-22T14:22:40;2.90;;;1.80;;
9960;SDS011;5021;51.506;11.320;2023-12-22T14:25:06;5.10;;;1.73;;
9960;SDS011;5021;51.506;11.320;2023-12-22T14:27:32;3.00;;;1.43;;
9960;SDS011;5021;51.506;11.320;2023-12-22T14:29:58;4.97;;;1.93;;
9960;SDS011;5021;51.506;11.320;2023-12-22T14:32:24;7.53;;;2.30;;
9960;SDS011;5021;51.506;11.320;2023-12-22T14:34:50;2.10;;;1.40;;
9960;SDS011;5021;51.506;11.320;2023-12-22T14:37:16;4.40;;;1.80;;
9960;SDS011;5021;51.506;11.320;2023-12-22T14:39:42;3.73;;;1.53;;
9960;SDS011;5021;51.506;11.320;2023-12-22T14:42:08;3.50;;;1.40;;
9960;SDS011;5021;51.506;11.320;2023-12-22T14:44:34;2.67;;;1.60;;
9960;SDS011;5021;51.506;11.320;2023-12-22T14:47:00;2.27;;;1.57;;
9960;SDS011;5021;51.506;11.320;2023-12-22T14:49:26;4.43;;;1.97;;
9960;SDS011;5021;51.506;11.320;2023-12-22T14:51:52;3.10;;;1.70;;
9960;SDS011;5021;51.506;11.320;2023-12-22T14:54:19;2.70;;;1.50;;
9960;SDS011;5021;51.506;11.320;2023-12-22T14:56:48;2.47;;;1.20;;
9960;SDS011;5021;51.506;11.320;2023-12-22T14:59:14;3.77;;;1.77;;
9960;SDS011;5021;51.506;11.320;2023-12-22T15:01:40;3.23;;;1.87;;